createdAt,value
2017-11-05T00:00:14.444Z,0
2017-11-05T00:01:15.184Z,0
2017-11-05T00:02:15.910Z,0
2017-11-05T00:03:16.719Z,0
2017-11-05T00:04:17.543Z,0
2017-11-05T00:05:18.313Z,0
2017-11-05T00:06:19.044Z,0
2017-11-05T00:07:19.843Z,0
2017-11-05T00:08:20.576Z,0
2017-11-05T00:09:21.311Z,0
2017-11-05T00:10:22.051Z,0
2017-11-05T00:11:22.791Z,0
2017-11-05T00:12:23.586Z,0
2017-11-05T00:13:24.414Z,0
2017-11-05T00:14:25.217Z,0
2017-11-05T00:15:26.093Z,0
2017-11-05T00:16:26.830Z,0
2017-11-05T00:17:27.577Z,0
2017-11-05T00:18:28.344Z,0
2017-11-05T00:19:29.145Z,0
2017-11-05T00:20:30.053Z,0
2017-11-05T00:21:30.863Z,0
2017-11-05T00:22:31.610Z,0
2017-11-05T00:23:32.349Z,0
2017-11-05T00:24:33.169Z,0
2017-11-05T00:25:33.957Z,0
2017-11-05T00:26:34.702Z,0
2017-11-05T00:27:35.678Z,0
2017-11-05T00:28:36.480Z,0
2017-11-05T00:29:37.203Z,0
2017-11-05T00:30:38.332Z,0
2017-11-05T00:31:39.061Z,0
2017-11-05T00:32:39.804Z,0
2017-11-05T00:33:40.596Z,0
2017-11-05T00:34:41.336Z,0
2017-11-05T00:35:42.453Z,0
2017-11-05T00:36:43.264Z,0
2017-11-05T00:37:44.057Z,0
2017-11-05T00:38:44.864Z,0
2017-11-05T00:39:45.585Z,0
2017-11-05T00:40:46.363Z,0
2017-11-05T00:41:47.094Z,0
2017-11-05T00:42:47.915Z,0
2017-11-05T00:43:48.714Z,0
2017-11-05T00:44:49.532Z,0
2017-11-05T00:45:50.313Z,0
2017-11-05T00:46:51.045Z,0
2017-11-05T00:47:51.782Z,0
2017-11-05T00:48:52.511Z,0
2017-11-05T00:49:53.259Z,0
2017-11-05T00:50:53.974Z,0
2017-11-05T00:51:54.714Z,0
2017-11-05T00:52:55.507Z,0
2017-11-05T00:53:56.238Z,0
2017-11-05T00:54:56.971Z,0
2017-11-05T00:55:58.001Z,0
2017-11-05T00:56:58.730Z,0
2017-11-05T00:57:59.489Z,0
2017-11-05T00:59:00.252Z,0
2017-11-05T01:00:00.986Z,0
2017-11-05T01:01:01.782Z,0
2017-11-05T01:02:02.559Z,0
2017-11-05T01:03:03.339Z,0
2017-11-05T01:04:04.165Z,0
2017-11-05T01:05:04.894Z,0
2017-11-05T01:06:05.717Z,0
2017-11-05T01:07:06.454Z,0
2017-11-05T01:08:07.242Z,0
2017-11-05T01:09:07.995Z,0
2017-11-05T01:10:08.694Z,0
2017-11-05T01:11:09.502Z,0
2017-11-05T01:12:10.240Z,0
2017-11-05T01:13:10.962Z,0
2017-11-05T01:14:12.092Z,0
2017-11-05T01:15:12.824Z,0
2017-11-05T01:16:13.606Z,0
2017-11-05T01:17:14.412Z,0
2017-11-05T01:18:15.191Z,0
2017-11-05T01:19:15.972Z,0
2017-11-05T01:20:16.702Z,0
2017-11-05T01:21:17.536Z,0
2017-11-05T01:22:18.313Z,0
2017-11-05T01:23:19.045Z,0
2017-11-05T01:24:20.259Z,0
2017-11-05T01:25:20.991Z,0
2017-11-05T01:26:21.722Z,0
2017-11-05T01:27:22.461Z,0
2017-11-05T01:28:23.211Z,0
2017-11-05T01:29:24.103Z,0
2017-11-05T01:30:24.882Z,0
2017-11-05T01:31:25.600Z,0
2017-11-05T01:32:26.393Z,0
2017-11-05T01:33:27.124Z,0
2017-11-05T01:34:28.263Z,0
2017-11-05T01:35:28.999Z,0
2017-11-05T01:36:29.760Z,0
2017-11-05T01:37:30.492Z,0
2017-11-05T01:38:31.227Z,0
2017-11-05T01:39:32.043Z,0
2017-11-05T01:40:32.844Z,0
2017-11-05T01:41:33.643Z,0
2017-11-05T01:42:34.383Z,0
2017-11-05T01:43:35.233Z,0
2017-11-05T01:44:36.050Z,0
2017-11-05T01:45:36.833Z,0
2017-11-05T01:46:37.651Z,0
2017-11-05T01:47:38.383Z,0
2017-11-05T01:48:39.216Z,0
2017-11-05T01:49:39.948Z,0
2017-11-05T01:50:40.693Z,0
2017-11-05T01:51:41.426Z,0
2017-11-05T01:52:42.160Z,0
2017-11-05T01:53:42.992Z,0
2017-11-05T01:54:43.733Z,0
2017-11-05T01:55:44.456Z,0
2017-11-05T01:56:45.185Z,0
2017-11-05T01:57:45.917Z,0
2017-11-05T01:58:46.786Z,0
2017-11-05T01:59:47.512Z,0
2017-11-05T02:00:48.245Z,0
2017-11-05T02:01:49.051Z,0
2017-11-05T02:02:49.833Z,0
2017-11-05T02:03:50.683Z,0
2017-11-05T02:04:51.413Z,0
2017-11-05T02:05:52.137Z,0
2017-11-05T02:06:52.939Z,0
2017-11-05T02:07:53.662Z,0
2017-11-05T02:08:54.386Z,0
2017-11-05T02:09:55.287Z,0
2017-11-05T02:10:56.072Z,0
2017-11-05T02:11:56.807Z,0
2017-11-05T02:12:57.574Z,0
2017-11-05T02:13:58.393Z,0
2017-11-05T02:14:59.505Z,0
2017-11-05T02:16:00.292Z,0
2017-11-05T02:17:01.082Z,0
2017-11-05T02:18:01.812Z,0
2017-11-05T02:19:02.544Z,0
2017-11-05T02:20:03.673Z,0
2017-11-05T02:21:04.404Z,0
2017-11-05T02:22:05.146Z,0
2017-11-05T02:23:05.921Z,0
2017-11-05T02:24:06.654Z,0
2017-11-05T02:25:07.473Z,0
2017-11-05T02:26:08.253Z,0
2017-11-05T02:27:08.978Z,0
2017-11-05T02:28:09.793Z,0
2017-11-05T02:29:10.595Z,0
2017-11-05T02:30:11.716Z,0
2017-11-05T02:31:12.456Z,0
2017-11-05T02:32:13.226Z,0
2017-11-05T02:33:13.959Z,0
2017-11-05T02:34:14.747Z,0
2017-11-05T02:35:15.529Z,0
2017-11-05T02:36:16.663Z,0
2017-11-05T02:37:17.383Z,0
2017-11-05T02:38:18.144Z,0
2017-11-05T02:39:18.882Z,0
2017-11-05T02:40:19.613Z,0
2017-11-05T02:41:20.393Z,0
2017-11-05T02:42:21.138Z,0
2017-11-05T02:43:21.873Z,0
2017-11-05T02:44:22.667Z,0
2017-11-05T02:45:23.422Z,0
2017-11-05T02:46:24.576Z,0
2017-11-05T02:47:25.315Z,0
2017-11-05T02:48:26.031Z,0
2017-11-05T02:49:26.812Z,0
2017-11-05T02:50:27.614Z,0
2017-11-05T02:51:28.358Z,0
2017-11-05T02:52:29.113Z,0
2017-11-05T02:53:29.843Z,0
2017-11-05T02:54:30.579Z,0
2017-11-05T02:55:31.377Z,0
2017-11-05T02:56:32.362Z,0
2017-11-05T02:57:33.087Z,0
2017-11-05T02:58:33.806Z,0
2017-11-05T02:59:34.599Z,0
2017-11-05T03:00:35.331Z,0
2017-11-05T03:01:36.448Z,0
2017-11-05T03:02:37.181Z,0
2017-11-05T03:03:37.923Z,0
2017-11-05T03:04:38.734Z,0
2017-11-05T03:05:39.541Z,0
2017-11-05T03:06:40.375Z,0
2017-11-05T03:07:41.102Z,0
2017-11-05T03:08:41.835Z,0
2017-11-05T03:09:42.630Z,0
2017-11-05T03:10:43.359Z,0
2017-11-05T03:11:44.225Z,0
2017-11-05T03:12:44.985Z,0
2017-11-05T03:13:45.792Z,0
2017-11-05T03:14:46.586Z,0
2017-11-05T03:15:47.326Z,0
2017-11-05T03:16:48.133Z,0
2017-11-05T03:17:48.852Z,0
2017-11-05T03:18:49.594Z,0
2017-11-05T03:19:50.398Z,0
2017-11-05T03:20:51.198Z,0
2017-11-05T03:21:52.053Z,0
2017-11-05T03:22:52.794Z,0
2017-11-05T03:23:53.586Z,0
2017-11-05T03:24:54.390Z,0
2017-11-05T03:25:55.182Z,0
2017-11-05T03:26:56.003Z,0
2017-11-05T03:27:56.738Z,0
2017-11-05T03:28:57.513Z,0
2017-11-05T03:29:58.252Z,0
2017-11-05T03:30:58.984Z,0
2017-11-05T03:31:59.761Z,0
2017-11-05T03:33:00.571Z,0
2017-11-05T03:34:01.332Z,0
2017-11-05T03:35:02.053Z,0
2017-11-05T03:36:02.869Z,0
2017-11-05T03:37:03.598Z,0
2017-11-05T03:38:04.336Z,0
2017-11-05T03:39:05.151Z,0
2017-11-05T03:40:05.889Z,0
2017-11-05T03:41:06.642Z,0
2017-11-05T03:42:07.422Z,0
2017-11-05T03:43:08.176Z,0
2017-11-05T03:44:08.963Z,0
2017-11-05T03:45:09.681Z,0
2017-11-05T03:46:10.462Z,0
2017-11-05T03:47:11.132Z,0
2017-11-05T03:48:11.863Z,0
2017-11-05T03:49:12.962Z,0
2017-11-05T03:50:13.701Z,0
2017-11-05T03:51:14.442Z,0
2017-11-05T03:52:15.242Z,0
2017-11-05T03:53:15.974Z,0
2017-11-05T03:54:16.879Z,0
2017-11-05T03:55:17.674Z,0
2017-11-05T03:56:18.482Z,0
2017-11-05T03:57:19.214Z,0
2017-11-05T03:58:20.023Z,0
2017-11-05T03:59:20.870Z,0
2017-11-05T04:00:21.602Z,0
2017-11-05T04:01:22.332Z,0
2017-11-05T04:02:23.065Z,0
2017-11-05T04:03:23.891Z,0
2017-11-05T04:04:24.623Z,0
2017-11-05T04:05:25.357Z,0
2017-11-05T04:06:26.154Z,0
2017-11-05T04:07:26.838Z,0
2017-11-05T04:08:27.614Z,0
2017-11-05T04:09:28.511Z,0
2017-11-05T04:10:29.242Z,0
2017-11-05T04:11:29.975Z,0
2017-11-05T04:12:30.719Z,0
2017-11-05T04:13:31.509Z,0
2017-11-05T04:14:32.403Z,0
2017-11-05T04:15:33.136Z,0
2017-11-05T04:16:33.877Z,0
2017-11-05T04:17:34.685Z,0
2017-11-05T04:18:35.415Z,0
2017-11-05T04:19:36.440Z,0
2017-11-05T04:20:37.169Z,0
2017-11-05T04:21:37.892Z,0
2017-11-05T04:22:38.598Z,0
2017-11-05T04:23:39.393Z,0
2017-11-05T04:24:40.233Z,0
2017-11-05T04:25:41.016Z,0
2017-11-05T04:26:41.828Z,0
2017-11-05T04:27:42.553Z,0
2017-11-05T04:28:43.277Z,0
2017-11-05T04:29:44.004Z,0
2017-11-05T04:30:44.735Z,0
2017-11-05T04:31:45.595Z,0
2017-11-05T04:32:46.328Z,0
2017-11-05T04:33:47.052Z,0
2017-11-05T04:34:47.797Z,0
2017-11-05T04:35:48.559Z,0
2017-11-05T04:36:49.369Z,0
2017-11-05T04:37:50.107Z,0
2017-11-05T04:38:50.837Z,0
2017-11-05T04:39:51.574Z,0
2017-11-05T04:40:52.380Z,0
2017-11-05T04:41:53.191Z,0
2017-11-05T04:42:53.914Z,0
2017-11-05T04:43:54.653Z,0
2017-11-05T04:46:09.669Z,0
2017-11-05T04:47:10.803Z,0
2017-11-05T04:48:11.531Z,0
2017-11-05T04:49:12.284Z,0
2017-11-05T04:50:13.059Z,0
2017-11-05T04:51:13.843Z,0
2017-11-05T04:52:14.977Z,0
2017-11-05T04:53:15.708Z,0
2017-11-05T04:54:16.497Z,0
2017-11-05T04:55:17.327Z,0
2017-11-05T04:56:18.095Z,0
2017-11-05T04:57:18.874Z,0
2017-11-05T04:58:19.608Z,0
2017-11-05T04:59:20.402Z,0
2017-11-05T05:00:21.205Z,0
2017-11-05T05:01:22.004Z,0
2017-11-05T05:02:22.724Z,0
2017-11-05T05:03:23.457Z,0
2017-11-05T05:04:24.266Z,0
2017-11-05T05:05:25.040Z,0
2017-11-05T05:06:25.760Z,0
2017-11-05T05:07:26.592Z,0
2017-11-05T05:08:27.325Z,0
2017-11-05T05:09:28.157Z,0
2017-11-05T05:10:28.925Z,0
2017-11-05T05:11:29.721Z,0
2017-11-05T05:12:30.751Z,0
2017-11-05T05:13:31.481Z,0
2017-11-05T05:14:32.283Z,0
2017-11-05T05:15:33.012Z,0
2017-11-05T05:16:33.742Z,0
2017-11-05T05:17:34.600Z,0
2017-11-05T05:18:35.333Z,0
2017-11-05T05:19:36.130Z,0
2017-11-05T05:20:36.861Z,0
2017-11-05T05:21:37.590Z,0
2017-11-05T05:22:38.328Z,0
2017-11-05T05:23:39.060Z,0
2017-11-05T05:24:39.807Z,0
2017-11-05T05:25:40.661Z,0
2017-11-05T05:26:41.397Z,0
2017-11-05T05:27:42.190Z,0
2017-11-05T05:28:42.923Z,0
2017-11-05T05:29:43.732Z,0
2017-11-05T05:30:44.560Z,0
2017-11-05T05:31:45.293Z,0
2017-11-05T05:32:46.090Z,0
2017-11-05T05:33:46.830Z,0
2017-11-05T05:34:47.552Z,0
2017-11-05T05:35:48.450Z,0
2017-11-05T05:36:49.179Z,0
2017-11-05T05:37:49.914Z,0
2017-11-05T05:38:50.714Z,0
2017-11-05T05:39:51.448Z,0
2017-11-05T05:40:52.351Z,0
2017-11-05T05:41:53.084Z,0
2017-11-05T05:42:53.822Z,0
2017-11-05T05:43:54.563Z,0
2017-11-05T05:44:55.340Z,0
2017-11-05T05:45:56.126Z,0
2017-11-05T05:46:56.932Z,0
2017-11-05T05:47:57.750Z,0
2017-11-05T05:48:58.482Z,0
2017-11-05T05:49:59.204Z,0
2017-11-05T05:51:00.030Z,0
2017-11-05T05:52:00.761Z,0
2017-11-05T05:53:01.491Z,0
2017-11-05T05:54:02.231Z,0
2017-11-05T05:55:02.963Z,0
2017-11-05T05:56:04.061Z,0
2017-11-05T05:57:04.841Z,0
2017-11-05T05:58:05.621Z,0
2017-11-05T05:59:06.355Z,0
2017-11-05T06:00:07.092Z,0
2017-11-05T06:01:08.173Z,0
2017-11-05T06:02:08.961Z,0
2017-11-05T06:03:09.761Z,0
2017-11-05T06:04:10.482Z,0
2017-11-05T06:05:11.211Z,0
2017-11-05T06:06:11.997Z,0
2017-11-05T06:07:12.793Z,0
2017-11-05T06:08:13.583Z,0
2017-11-05T06:09:14.315Z,0
2017-11-05T06:10:15.111Z,0
2017-11-05T06:11:15.905Z,0
2017-11-05T06:12:16.704Z,0
2017-11-05T06:13:17.498Z,0
2017-11-05T06:14:18.223Z,0
2017-11-05T06:15:19.016Z,0
2017-11-05T06:16:19.878Z,0
2017-11-05T06:17:20.664Z,0
2017-11-05T06:18:21.468Z,0
2017-11-05T06:19:22.202Z,0
2017-11-05T06:20:22.942Z,0
2017-11-05T06:21:23.722Z,0
2017-11-05T06:22:24.452Z,0
2017-11-05T06:23:25.183Z,0
2017-11-05T06:24:25.983Z,0
2017-11-05T06:25:26.712Z,0
2017-11-05T06:26:27.842Z,0
2017-11-05T06:27:28.613Z,0
2017-11-05T06:28:29.345Z,0
2017-11-05T06:29:30.136Z,0
2017-11-05T06:30:30.885Z,0
2017-11-05T06:31:31.709Z,0
2017-11-05T06:32:32.432Z,5
2017-11-05T06:33:33.233Z,5
2017-11-05T06:34:34.041Z,5
2017-11-05T06:35:34.785Z,5
2017-11-05T06:36:35.655Z,5
2017-11-05T06:37:36.452Z,5
2017-11-05T06:38:37.198Z,5
2017-11-05T06:39:37.923Z,5
2017-11-05T06:40:38.754Z,5
2017-11-05T06:41:39.641Z,5
2017-11-05T06:42:40.444Z,5
2017-11-05T06:43:41.177Z,5
2017-11-05T06:44:41.912Z,5
2017-11-05T06:45:42.708Z,5
2017-11-05T06:46:43.491Z,5
2017-11-05T06:47:44.303Z,5
2017-11-05T06:48:45.032Z,5
2017-11-05T06:49:45.767Z,11
2017-11-05T06:50:46.546Z,11
2017-11-05T06:51:47.383Z,11
2017-11-05T06:52:48.217Z,11
2017-11-05T06:53:48.954Z,16
2017-11-05T06:54:49.762Z,16
2017-11-05T06:55:50.490Z,16
2017-11-05T06:56:51.336Z,22
2017-11-05T06:57:52.012Z,22
2017-11-05T06:58:52.810Z,22
2017-11-05T06:59:53.555Z,22
2017-11-05T07:00:54.365Z,22
2017-11-05T07:01:55.159Z,28
2017-11-05T07:02:55.946Z,28
2017-11-05T07:03:56.750Z,28
2017-11-05T07:04:57.481Z,33
2017-11-05T07:05:58.252Z,33
2017-11-05T07:06:59.146Z,33
2017-11-05T07:07:59.862Z,33
2017-11-05T07:09:00.591Z,39
2017-11-05T07:10:01.322Z,39
2017-11-05T07:11:02.061Z,39
2017-11-05T07:12:02.849Z,39
2017-11-05T07:13:03.585Z,45
2017-11-05T07:14:04.322Z,45
2017-11-05T07:15:05.067Z,45
2017-11-05T07:16:05.818Z,45
2017-11-05T07:17:06.687Z,45
2017-11-05T07:18:07.492Z,45
2017-11-05T07:19:08.231Z,50
2017-11-05T07:20:08.963Z,50
2017-11-05T07:21:09.783Z,56
2017-11-05T07:22:10.642Z,56
2017-11-05T07:23:11.370Z,56
2017-11-05T07:24:12.104Z,56
2017-11-05T07:25:12.912Z,56
2017-11-05T07:26:13.682Z,50
2017-11-05T07:27:14.552Z,45
2017-11-05T07:28:15.282Z,39
2017-11-05T07:29:16.081Z,45
2017-11-05T07:30:16.812Z,50
2017-11-05T07:31:17.562Z,56
2017-11-05T07:32:18.656Z,61
2017-11-05T07:33:19.436Z,67
2017-11-05T07:34:20.255Z,67
2017-11-05T07:35:20.992Z,67
2017-11-05T07:36:21.724Z,67
2017-11-05T07:37:22.452Z,67
2017-11-05T07:38:23.263Z,61
2017-11-05T07:39:24.000Z,50
2017-11-05T07:40:24.734Z,45
2017-11-05T07:41:25.464Z,39
2017-11-05T07:42:26.236Z,22
2017-11-05T07:43:26.974Z,22
2017-11-05T07:44:27.716Z,22
2017-11-05T07:45:28.511Z,28
2017-11-05T07:46:29.246Z,33
2017-11-05T07:47:30.146Z,56
2017-11-05T07:48:30.877Z,73
2017-11-05T07:49:31.681Z,84
2017-11-05T07:50:32.410Z,90
2017-11-05T07:51:33.147Z,95
2017-11-05T07:52:33.990Z,101
2017-11-05T07:53:34.729Z,112
2017-11-05T07:54:35.463Z,112
2017-11-05T07:55:36.196Z,118
2017-11-05T07:56:36.974Z,95
2017-11-05T07:57:37.811Z,106
2017-11-05T07:58:38.565Z,95
2017-11-05T07:59:39.360Z,95
2017-11-05T08:00:40.101Z,101
2017-11-05T08:01:40.834Z,101
2017-11-05T08:02:41.656Z,101
2017-11-05T08:03:42.396Z,90
2017-11-05T08:04:43.166Z,73
2017-11-05T08:05:43.902Z,84
2017-11-05T08:06:44.631Z,95
2017-11-05T08:07:45.363Z,78
2017-11-05T08:08:46.111Z,67
2017-11-05T08:09:46.857Z,67
2017-11-05T08:10:47.717Z,61
2017-11-05T08:11:48.505Z,67
2017-11-05T08:12:49.290Z,78
2017-11-05T08:13:50.032Z,95
2017-11-05T08:14:50.841Z,101
2017-11-05T08:15:51.869Z,101
2017-11-05T08:16:52.657Z,90
2017-11-05T08:17:53.450Z,90
2017-11-05T08:18:54.250Z,95
2017-11-05T08:19:55.038Z,106
2017-11-05T08:20:56.124Z,112
2017-11-05T08:21:56.854Z,112
2017-11-05T08:22:57.636Z,106
2017-11-05T08:23:58.362Z,106
2017-11-05T08:24:59.170Z,112
2017-11-05T08:26:00.601Z,118
2017-11-05T08:27:01.338Z,123
2017-11-05T08:28:02.142Z,129
2017-11-05T08:29:02.943Z,135
2017-11-05T08:30:03.697Z,135
2017-11-05T08:31:04.612Z,135
2017-11-05T08:32:05.352Z,140
2017-11-05T08:33:06.092Z,146
2017-11-05T08:34:06.822Z,157
2017-11-05T08:35:07.545Z,163
2017-11-05T08:36:08.582Z,163
2017-11-05T08:37:09.313Z,163
2017-11-05T08:38:10.106Z,163
2017-11-05T08:39:10.834Z,163
2017-11-05T08:40:11.565Z,168
2017-11-05T08:41:12.681Z,180
2017-11-05T08:42:13.417Z,191
2017-11-05T08:43:14.203Z,208
2017-11-05T08:44:15.011Z,208
2017-11-05T08:45:15.742Z,213
2017-11-05T08:46:16.902Z,213
2017-11-05T08:47:17.630Z,219
2017-11-05T08:48:18.402Z,230
2017-11-05T08:49:19.137Z,236
2017-11-05T08:50:19.942Z,241
2017-11-05T08:51:20.730Z,236
2017-11-05T08:52:21.462Z,241
2017-11-05T08:53:22.203Z,241
2017-11-05T08:54:22.944Z,236
2017-11-05T08:55:23.753Z,230
2017-11-05T08:56:24.543Z,213
2017-11-05T08:57:25.337Z,208
2017-11-05T08:58:26.147Z,196
2017-11-05T08:59:26.882Z,191
2017-11-05T09:00:27.623Z,185
2017-11-05T09:01:28.453Z,196
2017-11-05T09:02:29.184Z,196
2017-11-05T09:03:29.993Z,225
2017-11-05T09:04:30.729Z,219
2017-11-05T09:05:31.526Z,191
2017-11-05T09:06:32.367Z,202
2017-11-05T09:07:33.103Z,202
2017-11-05T09:08:33.845Z,219
2017-11-05T09:09:34.576Z,247
2017-11-05T09:10:35.303Z,236
2017-11-05T09:11:36.116Z,241
2017-11-05T09:12:36.851Z,241
2017-11-05T09:13:37.593Z,236
2017-11-05T09:14:38.703Z,236
2017-11-05T09:15:39.446Z,230
2017-11-05T09:16:40.217Z,213
2017-11-05T09:17:40.972Z,219
2017-11-05T09:18:41.762Z,225
2017-11-05T09:19:42.561Z,225
2017-11-05T09:20:43.353Z,202
2017-11-05T09:21:44.083Z,180
2017-11-05T09:22:44.901Z,174
2017-11-05T09:23:45.621Z,180
2017-11-05T09:24:46.421Z,196
2017-11-05T09:25:47.184Z,219
2017-11-05T09:26:47.984Z,230
2017-11-05T09:27:48.772Z,247
2017-11-05T09:28:49.502Z,286
2017-11-05T09:29:50.283Z,298
2017-11-05T09:30:51.020Z,320
2017-11-05T09:31:51.814Z,326
2017-11-05T09:32:52.533Z,320
2017-11-05T09:33:53.257Z,320
2017-11-05T09:34:54.043Z,320
2017-11-05T09:35:54.795Z,315
2017-11-05T09:36:55.592Z,331
2017-11-05T09:37:56.326Z,337
2017-11-05T09:38:57.069Z,320
2017-11-05T09:39:57.884Z,326
2017-11-05T09:40:58.703Z,315
2017-11-05T09:41:59.437Z,315
2017-11-05T09:43:00.232Z,298
2017-11-05T09:44:00.972Z,281
2017-11-05T09:45:01.882Z,275
2017-11-05T09:46:02.613Z,247
2017-11-05T09:47:03.358Z,258
2017-11-05T09:48:04.136Z,286
2017-11-05T09:49:04.927Z,275
2017-11-05T09:50:05.777Z,258
2017-11-05T09:51:06.512Z,264
2017-11-05T09:52:07.258Z,275
2017-11-05T09:53:08.033Z,292
2017-11-05T09:54:08.771Z,298
2017-11-05T09:55:09.563Z,326
2017-11-05T09:56:10.370Z,343
2017-11-05T09:57:11.102Z,343
2017-11-05T09:58:11.840Z,315
2017-11-05T09:59:12.574Z,258
2017-11-05T10:00:13.387Z,219
2017-11-05T10:01:14.207Z,202
2017-11-05T10:02:14.997Z,196
2017-11-05T10:03:15.783Z,196
2017-11-05T10:04:16.588Z,196
2017-11-05T10:05:17.335Z,191
2017-11-05T10:06:18.112Z,185
2017-11-05T10:07:18.949Z,185
2017-11-05T10:08:19.775Z,191
2017-11-05T10:09:20.514Z,202
2017-11-05T10:10:21.320Z,208
2017-11-05T10:11:22.058Z,219
2017-11-05T10:12:22.946Z,225
2017-11-05T10:13:23.752Z,225
2017-11-05T10:14:24.483Z,236
2017-11-05T10:15:25.214Z,247
2017-11-05T10:16:25.997Z,258
2017-11-05T10:17:27.102Z,264
2017-11-05T10:18:27.844Z,275
2017-11-05T10:19:28.645Z,281
2017-11-05T10:20:29.458Z,292
2017-11-05T10:21:30.257Z,303
2017-11-05T10:22:30.988Z,315
2017-11-05T10:23:31.727Z,326
2017-11-05T10:24:32.522Z,331
2017-11-05T10:25:33.313Z,337
2017-11-05T10:26:34.102Z,326
2017-11-05T10:27:34.832Z,320
2017-11-05T10:28:35.632Z,315
2017-11-05T10:29:36.363Z,320
2017-11-05T10:30:37.098Z,337
2017-11-05T10:31:37.888Z,348
2017-11-05T10:32:38.697Z,354
2017-11-05T10:33:39.428Z,354
2017-11-05T10:34:40.159Z,348
2017-11-05T10:35:40.931Z,337
2017-11-05T10:36:41.671Z,320
2017-11-05T10:37:42.391Z,315
2017-11-05T10:38:43.145Z,298
2017-11-05T10:39:43.931Z,292
2017-11-05T10:40:44.801Z,286
2017-11-05T10:41:45.527Z,286
2017-11-05T10:42:46.285Z,286
2017-11-05T10:43:47.032Z,303
2017-11-05T10:44:47.773Z,331
2017-11-05T10:45:48.513Z,360
2017-11-05T10:46:49.328Z,360
2017-11-05T10:47:50.122Z,371
2017-11-05T10:48:50.971Z,376
2017-11-05T10:49:51.692Z,382
2017-11-05T10:50:52.441Z,382
2017-11-05T10:51:53.226Z,382
2017-11-05T10:52:54.020Z,376
2017-11-05T10:53:55.102Z,360
2017-11-05T10:54:55.842Z,337
2017-11-05T10:55:56.643Z,326
2017-11-05T10:56:57.451Z,309
2017-11-05T10:57:58.262Z,298
2017-11-05T10:58:59.089Z,298
2017-11-05T10:59:59.822Z,303
2017-11-05T11:01:00.555Z,309
2017-11-05T11:02:01.291Z,309
2017-11-05T11:03:02.082Z,292
2017-11-05T11:04:02.811Z,286
2017-11-05T11:05:03.545Z,281
2017-11-05T11:06:04.343Z,286
2017-11-05T11:07:05.088Z,292
2017-11-05T11:08:05.812Z,298
2017-11-05T11:09:06.843Z,298
2017-11-05T11:10:07.660Z,303
2017-11-05T11:11:08.410Z,286
2017-11-05T11:12:09.178Z,286
2017-11-05T11:13:09.981Z,281
2017-11-05T11:14:10.820Z,281
2017-11-05T11:15:11.551Z,292
2017-11-05T11:16:12.365Z,292
2017-11-05T11:17:13.176Z,281
2017-11-05T11:18:13.902Z,270
2017-11-05T11:19:14.686Z,258
2017-11-05T11:20:15.503Z,258
2017-11-05T11:21:16.291Z,253
2017-11-05T11:22:17.029Z,253
2017-11-05T11:23:17.761Z,247
2017-11-05T11:24:18.594Z,241
2017-11-05T11:25:19.393Z,236
2017-11-05T11:26:20.202Z,230
2017-11-05T11:27:20.932Z,230
2017-11-05T11:28:21.654Z,230
2017-11-05T11:29:22.456Z,225
2017-11-05T11:30:23.253Z,225
2017-11-05T11:31:23.984Z,230
2017-11-05T11:32:24.791Z,230
2017-11-05T11:33:25.533Z,236
2017-11-05T11:34:26.373Z,236
2017-11-05T11:35:27.181Z,247
2017-11-05T11:36:27.913Z,264
2017-11-05T11:37:28.716Z,270
2017-11-05T11:38:29.515Z,281
2017-11-05T11:39:30.372Z,281
2017-11-05T11:40:31.160Z,247
2017-11-05T11:41:31.903Z,230
2017-11-05T11:42:32.691Z,247
2017-11-05T11:43:33.426Z,241
2017-11-05T11:44:34.314Z,230
2017-11-05T11:45:35.051Z,241
2017-11-05T11:46:35.782Z,247
2017-11-05T11:47:36.528Z,236
2017-11-05T11:48:37.323Z,258
2017-11-05T11:49:38.408Z,275
2017-11-05T11:50:39.193Z,275
2017-11-05T11:51:39.922Z,270
2017-11-05T11:52:40.643Z,258
2017-11-05T11:53:41.441Z,247
2017-11-05T11:54:42.309Z,230
2017-11-05T11:55:43.021Z,219
2017-11-05T11:56:43.782Z,202
2017-11-05T11:57:44.981Z,208
2017-11-05T11:58:45.955Z,230
2017-11-05T11:59:46.754Z,236
2017-11-05T12:00:47.524Z,241
2017-11-05T12:01:48.262Z,241
2017-11-05T12:02:50.015Z,241
2017-11-05T12:03:51.033Z,247
2017-11-05T12:04:51.957Z,253
2017-11-05T12:05:52.681Z,264
2017-11-05T12:06:53.413Z,275
2017-11-05T12:07:54.162Z,281
2017-11-05T12:08:54.910Z,281
2017-11-05T12:09:55.643Z,281
2017-11-05T12:10:56.461Z,281
2017-11-05T12:11:57.247Z,281
2017-11-05T12:12:57.993Z,281
2017-11-05T12:13:58.729Z,281
2017-11-05T12:14:59.552Z,281
2017-11-05T12:16:00.290Z,275
2017-11-05T12:17:01.083Z,270
2017-11-05T12:18:01.928Z,258
2017-11-05T12:19:02.638Z,253
2017-11-05T12:20:03.571Z,247
2017-11-05T12:21:04.343Z,241
2017-11-05T12:22:05.142Z,236
2017-11-05T12:23:05.881Z,230
2017-11-05T12:24:06.631Z,225
2017-11-05T12:25:07.544Z,225
2017-11-05T12:26:08.356Z,225
2017-11-05T12:27:09.113Z,236
2017-11-05T12:28:09.916Z,247
2017-11-05T12:29:10.694Z,253
2017-11-05T12:30:11.435Z,258
2017-11-05T12:31:12.231Z,258
2017-11-05T12:32:13.027Z,264
2017-11-05T12:33:13.755Z,264
2017-11-05T12:34:14.602Z,264
2017-11-05T12:35:15.357Z,264
2017-11-05T12:36:16.130Z,258
2017-11-05T12:37:17.179Z,253
2017-11-05T12:38:17.968Z,253
2017-11-05T12:39:18.724Z,247
2017-11-05T12:40:19.528Z,247
2017-11-05T12:41:20.256Z,241
2017-11-05T12:42:21.108Z,241
2017-11-05T12:43:21.911Z,241
2017-11-05T12:44:22.753Z,247
2017-11-05T12:45:23.501Z,253
2017-11-05T12:46:24.261Z,258
2017-11-05T12:47:25.137Z,270
2017-11-05T12:48:25.874Z,281
2017-11-05T12:49:26.601Z,292
2017-11-05T12:50:27.332Z,309
2017-11-05T12:51:28.962Z,326
2017-11-05T12:52:30.116Z,343
2017-11-05T12:53:30.938Z,354
2017-11-05T12:54:31.724Z,360
2017-11-05T12:55:32.447Z,365
2017-11-05T12:56:33.249Z,371
2017-11-05T12:57:35.092Z,376
2017-11-05T12:58:35.943Z,382
2017-11-05T12:59:36.671Z,388
2017-11-05T13:00:37.404Z,393
2017-11-05T13:01:38.135Z,399
2017-11-05T13:02:38.936Z,388
2017-11-05T13:03:40.433Z,376
2017-11-05T13:04:41.405Z,371
2017-11-05T13:05:42.137Z,365
2017-11-05T13:06:43.411Z,371
2017-11-05T13:07:44.635Z,376
2017-11-05T13:08:45.558Z,388
2017-11-05T13:09:46.328Z,376
2017-11-05T13:10:47.237Z,365
2017-11-05T13:11:48.088Z,348
2017-11-05T13:12:48.932Z,343
2017-11-05T13:13:49.693Z,337
2017-11-05T13:14:50.573Z,331
2017-11-05T13:15:51.250Z,331
2017-11-05T13:16:52.075Z,331
2017-11-05T13:17:52.963Z,331
2017-11-05T13:18:53.762Z,331
2017-11-05T13:19:54.489Z,331
2017-11-05T13:20:55.299Z,303
2017-11-05T13:21:56.076Z,270
2017-11-05T13:22:56.851Z,247
2017-11-05T13:23:57.588Z,230
2017-11-05T13:24:58.374Z,230
2017-11-05T13:25:59.102Z,230
2017-11-05T13:26:59.918Z,213
2017-11-05T13:28:01.160Z,180
2017-11-05T13:29:01.969Z,151
2017-11-05T13:30:02.643Z,140
2017-11-05T13:31:03.370Z,151
2017-11-05T13:32:04.171Z,168
2017-11-05T13:33:05.002Z,208
2017-11-05T13:34:05.739Z,247
2017-11-05T13:35:06.469Z,275
2017-11-05T13:36:07.296Z,303
2017-11-05T13:37:08.001Z,326
2017-11-05T13:38:08.782Z,343
2017-11-05T13:39:09.581Z,354
2017-11-05T13:40:10.377Z,354
2017-11-05T13:41:11.104Z,354
2017-11-05T13:42:11.832Z,354
2017-11-05T13:43:12.631Z,348
2017-11-05T13:44:13.403Z,348
2017-11-05T13:45:14.201Z,348
2017-11-05T13:46:14.937Z,343
2017-11-05T13:47:15.681Z,337
2017-11-05T13:48:16.400Z,331
2017-11-05T13:49:17.127Z,326
2017-11-05T13:50:17.929Z,320
2017-11-05T13:51:18.696Z,320
2017-11-05T13:52:19.502Z,315
2017-11-05T13:53:20.338Z,315
2017-11-05T13:54:21.131Z,320
2017-11-05T13:55:21.861Z,320
2017-11-05T13:56:22.616Z,315
2017-11-05T13:57:23.311Z,315
2017-11-05T13:58:24.139Z,303
2017-11-05T13:59:24.896Z,292
2017-11-05T14:00:25.675Z,281
2017-11-05T14:01:26.471Z,270
2017-11-05T14:02:27.202Z,264
2017-11-05T14:03:27.994Z,258
2017-11-05T14:04:28.801Z,258
2017-11-05T14:05:29.552Z,253
2017-11-05T14:06:30.285Z,247
2017-11-05T14:07:31.073Z,241
2017-11-05T14:08:31.874Z,236
2017-11-05T14:09:32.600Z,236
2017-11-05T14:10:33.333Z,241
2017-11-05T14:11:34.165Z,241
2017-11-05T14:12:34.971Z,236
2017-11-05T14:13:35.695Z,236
2017-11-05T14:14:36.499Z,236
2017-11-05T14:15:37.263Z,236
2017-11-05T14:16:38.065Z,241
2017-11-05T14:17:38.861Z,241
2017-11-05T14:18:39.600Z,241
2017-11-05T14:19:40.407Z,236
2017-11-05T14:20:41.146Z,225
2017-11-05T14:21:42.285Z,213
2017-11-05T14:22:43.077Z,208
2017-11-05T14:23:43.813Z,196
2017-11-05T14:24:44.620Z,196
2017-11-05T14:25:45.400Z,191
2017-11-05T14:26:46.197Z,180
2017-11-05T14:27:47.001Z,174
2017-11-05T14:28:47.736Z,168